createdAt,value
2019-05-05T00:00:06.579Z,61.8
2019-05-05T00:00:47.150Z,61.8
2019-05-05T00:01:27.694Z,61.8
2019-05-05T00:02:08.262Z,61.8
2019-05-05T00:02:48.805Z,61.9
2019-05-05T00:03:29.369Z,61.71
2019-05-05T00:04:09.937Z,61.99
2019-05-05T00:04:50.495Z,62.08
2019-05-05T00:05:31.088Z,61.9
2019-05-05T00:06:11.661Z,62.08
2019-05-05T00:06:52.228Z,61.8
2019-05-05T00:07:34.756Z,61.61
2019-05-05T00:08:15.196Z,62.27
2019-05-05T00:08:54.694Z,61.71
2019-05-05T00:09:34.798Z,61.71
2019-05-05T00:10:15.220Z,61.8
2019-05-05T00:10:56.947Z,61.9
2019-05-05T00:11:36.156Z,62.18
2019-05-05T00:12:16.718Z,62.18
2019-05-05T00:12:57.296Z,62.27
2019-05-05T00:13:37.850Z,62.27
2019-05-05T00:14:18.398Z,62.18
2019-05-05T00:14:59.011Z,62.18
2019-05-05T00:15:39.562Z,62.18
2019-05-05T00:16:20.125Z,62.18
2019-05-05T00:17:00.701Z,61.99
2019-05-05T00:17:41.277Z,62.18
2019-05-05T00:18:21.831Z,62.37
2019-05-05T00:19:02.390Z,62.27
2019-05-05T00:19:45.267Z,62.53
2019-05-05T00:20:25.044Z,62.37
2019-05-05T00:21:04.577Z,62.34
2019-05-05T00:21:44.703Z,62.37
2019-05-05T00:22:25.249Z,62.75
2019-05-05T00:23:05.861Z,62.81
2019-05-05T00:23:46.441Z,63.01
2019-05-05T00:24:27.019Z,63.01
2019-05-05T00:25:07.576Z,63.13
2019-05-05T00:25:48.171Z,62.91
2019-05-05T00:26:28.738Z,62.81
2019-05-05T00:27:09.300Z,62.81
2019-05-05T00:27:49.961Z,62.91
2019-05-05T00:28:30.526Z,62.81
2019-05-05T00:29:11.088Z,62.72
2019-05-05T00:29:51.652Z,62.53
2019-05-05T00:30:34.194Z,62.43
2019-05-05T00:31:14.951Z,62.91
2019-05-05T00:31:54.664Z,63.39
2019-05-05T00:32:34.852Z,62.81
2019-05-05T00:33:14.803Z,62.81
2019-05-05T00:33:55.362Z,62.81
2019-05-05T00:34:35.945Z,62.81
2019-05-05T00:35:16.513Z,63.48
2019-05-05T00:35:57.092Z,63.39
2019-05-05T00:36:37.675Z,63.39
2019-05-05T00:37:18.226Z,63.1
2019-05-05T00:37:58.799Z,63.2
2019-05-05T00:38:39.362Z,63.29
2019-05-05T00:39:19.934Z,63.39
2019-05-05T00:40:00.496Z,63.86
2019-05-05T00:40:41.082Z,63.29
2019-05-05T00:41:21.645Z,63.86
2019-05-05T00:42:04.583Z,63.95
2019-05-05T00:42:42.883Z,63.86
2019-05-05T00:43:25.212Z,63.86
2019-05-05T00:44:04.814Z,63.95
2019-05-05T00:44:45.159Z,63.86
2019-05-05T00:45:25.717Z,63.86
2019-05-05T00:46:06.342Z,63.76
2019-05-05T00:46:46.913Z,63.57
2019-05-05T00:47:28.075Z,64.24
2019-05-05T00:48:08.620Z,64.24
2019-05-05T00:48:49.244Z,64.05
2019-05-05T00:49:37.387Z,63.95
2019-05-05T00:50:10.457Z,63.95
2019-05-05T00:50:51.852Z,64.14
2019-05-05T00:51:31.582Z,64.05
2019-05-05T00:52:13.839Z,64.43
2019-05-05T00:52:54.860Z,64.14
2019-05-05T00:53:34.207Z,64.24
2019-05-05T00:54:14.840Z,64.34
2019-05-05T00:54:55.553Z,63.95
2019-05-05T00:55:35.083Z,64.62
2019-05-05T00:56:15.563Z,64.43
2019-05-05T00:56:56.208Z,64.43
2019-05-05T00:57:36.769Z,64.34
2019-05-05T00:58:17.352Z,64.53
2019-05-05T00:58:57.904Z,64.24
2019-05-05T00:59:38.460Z,64.24
2019-05-05T01:00:19.012Z,64.24
2019-05-05T01:00:59.554Z,64.43
2019-05-05T01:01:40.141Z,64.24
2019-05-05T01:02:20.709Z,64.24
2019-05-05T01:03:01.264Z,64.24
2019-05-05T01:03:41.811Z,64.14
2019-05-05T01:04:22.365Z,64.53
2019-05-05T01:05:04.476Z,64.34
2019-05-05T01:05:44.794Z,64.62
2019-05-05T01:06:25.533Z,64.43
2019-05-05T01:07:05.008Z,64.43
2019-05-05T01:10:18.578Z,64.43
2019-05-05T01:10:59.133Z,64.72
2019-05-05T01:11:39.692Z,64.53
2019-05-05T01:12:20.254Z,64.24
2019-05-05T01:13:00.807Z,64.34
2019-05-05T01:13:41.363Z,64.34
2019-05-05T01:14:21.914Z,64.34
2019-05-05T01:15:04.406Z,64.53
2019-05-05T01:15:44.819Z,64.53
2019-05-05T01:16:24.691Z,64.34
2019-05-05T01:17:05.231Z,64.24
2019-05-05T01:17:45.150Z,64.53
2019-05-05T01:18:25.258Z,64.53
2019-05-05T01:19:05.806Z,64.24
2019-05-05T01:19:59.518Z,64.43
2019-05-05T01:20:26.973Z,64.53
2019-05-05T01:21:07.531Z,64.53
2019-05-05T01:21:48.099Z,64.43
2019-05-05T01:22:28.678Z,65
2019-05-05T01:23:09.224Z,65
2019-05-05T01:23:49.784Z,64.9
2019-05-05T01:24:30.348Z,64.9
2019-05-05T01:25:10.903Z,64.81
2019-05-05T01:25:51.756Z,64.9
2019-05-05T01:26:32.375Z,64.81
2019-05-05T01:27:14.705Z,64.72
2019-05-05T01:27:54.552Z,64.72
2019-05-05T01:28:35.485Z,64.81
2019-05-05T01:29:14.742Z,64.9
2019-05-05T01:32:15.178Z,64.81
2019-05-05T01:32:55.891Z,64.81
2019-05-05T01:33:34.544Z,64.9
2019-05-05T01:34:15.285Z,65
2019-05-05T01:34:55.682Z,64.59
2019-05-05T01:35:36.246Z,64.34
2019-05-05T01:36:16.791Z,64.49
2019-05-05T01:36:57.361Z,64.3
2019-05-05T01:37:37.915Z,64.4
2019-05-05T01:38:18.481Z,64.4
2019-05-05T01:38:59.044Z,64.49
2019-05-05T01:39:39.604Z,64.59
2019-05-05T01:40:20.210Z,65.06
2019-05-05T01:41:00.776Z,65.25
2019-05-05T01:41:41.332Z,65.25
2019-05-05T01:42:21.899Z,64.69
2019-05-05T01:43:02.500Z,64.69
2019-05-05T01:43:44.969Z,64.78
2019-05-05T01:44:24.642Z,64.97
2019-05-05T01:45:04.582Z,64.97
2019-05-05T01:45:45.293Z,65.25
2019-05-05T01:46:25.320Z,65.25
2019-05-05T01:47:05.897Z,65.44
2019-05-05T01:47:46.456Z,65.44
2019-05-05T01:48:27.013Z,65.35
2019-05-05T01:49:07.576Z,65.06
2019-05-05T01:49:48.144Z,65.44
2019-05-05T01:50:28.681Z,65.16
2019-05-05T01:51:09.282Z,65.25
2019-05-05T01:51:49.844Z,65.06
2019-05-05T01:52:30.400Z,65.25
2019-05-05T01:53:10.956Z,64.97
2019-05-05T01:53:51.503Z,65.35
2019-05-05T01:54:32.118Z,65.16
2019-05-05T01:55:14.461Z,65.44
2019-05-05T01:55:54.215Z,65.35
2019-05-05T01:56:35.162Z,65.44
2019-05-05T01:57:14.746Z,65.44
2019-05-05T01:57:54.905Z,65.92
2019-05-05T01:58:35.475Z,66.01
2019-05-05T01:59:16.037Z,65.73
2019-05-05T01:59:56.592Z,65.63
2019-05-05T02:00:37.138Z,65.54
2019-05-05T02:01:17.687Z,65.73
2019-05-05T02:01:58.268Z,65.73
2019-05-05T02:02:38.825Z,65.92
2019-05-05T02:03:19.402Z,65.82
2019-05-05T02:03:59.939Z,65.54
2019-05-05T02:04:40.517Z,65.82
2019-05-05T02:05:21.091Z,65.73
2019-05-05T02:06:01.641Z,65.73
2019-05-05T02:06:44.071Z,65.73
2019-05-05T02:07:24.800Z,65.63
2019-05-05T02:08:04.872Z,65.44
2019-05-05T02:08:45.407Z,65.44
2019-05-05T02:09:25.123Z,66.01
2019-05-05T02:10:05.983Z,65.92
2019-05-05T02:10:45.540Z,66.39
2019-05-05T02:11:26.091Z,66.39
2019-05-05T02:12:06.644Z,66.3
2019-05-05T02:12:47.177Z,66.2
2019-05-05T02:13:27.755Z,66.2
2019-05-05T02:14:08.331Z,65.92
2019-05-05T02:14:48.893Z,65.92
2019-05-05T02:15:29.443Z,66.11
2019-05-05T02:16:10.016Z,65.82
2019-05-05T02:16:50.599Z,65.92
2019-05-05T02:17:31.161Z,66.01
2019-05-05T02:18:11.734Z,66.01
2019-05-05T02:18:54.221Z,66.2
2019-05-05T02:19:34.787Z,65.63
2019-05-05T02:20:14.564Z,66.11
2019-05-05T02:20:54.411Z,66.11
2019-05-05T02:21:35.241Z,66.01
2019-05-05T02:22:15.076Z,66.67
2019-05-05T02:22:55.638Z,66.58
2019-05-05T02:23:36.194Z,66.77
2019-05-05T02:24:16.774Z,66.49
2019-05-05T02:24:57.339Z,66.67
2019-05-05T02:25:37.900Z,66.49
2019-05-05T02:26:18.466Z,66.96
2019-05-05T02:26:59.031Z,66.77
2019-05-05T02:27:39.590Z,66.87
2019-05-05T02:28:20.138Z,67.25
2019-05-05T02:29:00.717Z,66.67
2019-05-05T02:29:41.268Z,66.87
2019-05-05T02:30:21.824Z,66.87
2019-05-05T02:31:02.373Z,66.87
2019-05-05T02:31:45.360Z,67.34
2019-05-05T02:32:25.612Z,67.25
2019-05-05T02:33:06.233Z,67.15
2019-05-05T02:33:45.943Z,67.15
2019-05-05T02:34:25.730Z,67.34
2019-05-05T02:35:06.507Z,67.34
2019-05-05T02:35:46.286Z,66.87
2019-05-05T02:36:26.861Z,67.15
2019-05-05T02:37:07.417Z,67.15
2019-05-05T02:37:47.968Z,66.87
2019-05-05T02:38:28.532Z,66.87
2019-05-05T02:39:09.097Z,66.87
2019-05-05T02:39:57.593Z,67.25
2019-05-05T02:40:30.213Z,67.15
2019-05-05T02:41:10.777Z,67.12
2019-05-05T02:41:51.324Z,67.12
2019-05-05T02:42:31.895Z,67.21
2019-05-05T02:43:15.022Z,67.12
2019-05-05T02:43:55.648Z,67.02
2019-05-05T02:44:34.704Z,67.12
2019-05-05T02:45:15.459Z,67.02
2019-05-05T02:45:55.254Z,67.59
2019-05-05T02:46:35.780Z,67.5
2019-05-05T02:47:15.861Z,67.69
2019-05-05T02:47:56.362Z,67.69
2019-05-05T02:48:36.932Z,67.21
2019-05-05T02:49:17.477Z,67.69
2019-05-05T02:49:58.032Z,68.16
2019-05-05T02:50:50.655Z,68.16
2019-05-05T02:51:19.178Z,67.97
2019-05-05T02:51:59.735Z,68.16
2019-05-05T02:52:40.296Z,68.35
2019-05-05T02:53:20.869Z,67.88
2019-05-05T02:54:01.437Z,67.97
2019-05-05T02:54:44.049Z,67.97
2019-05-05T02:55:23.459Z,67.97
2019-05-05T02:56:04.141Z,68.26
2019-05-05T02:56:43.754Z,68.35
2019-05-05T02:57:24.277Z,68.16
2019-05-05T02:58:04.837Z,68.07
2019-05-05T02:58:45.404Z,67.97
2019-05-05T02:59:25.951Z,68.26
2019-05-05T03:00:06.505Z,68.64
2019-05-05T03:00:47.054Z,68.54
2019-05-05T03:01:27.620Z,68.35
2019-05-05T03:02:08.188Z,68.73
2019-05-05T03:02:48.750Z,68.54
2019-05-05T03:03:29.307Z,68.35
2019-05-05T03:04:09.856Z,68.64
2019-05-05T03:04:50.418Z,69.3
2019-05-05T03:05:30.982Z,69.02
2019-05-05T03:06:11.533Z,68.83
2019-05-05T03:06:53.942Z,68.73
2019-05-05T03:07:34.407Z,68.73
2019-05-05T03:08:13.839Z,68.54
2019-05-05T03:08:54.295Z,68.26
2019-05-05T03:09:34.718Z,68.54
2019-05-05T03:10:14.939Z,68.64
2019-05-05T03:10:55.488Z,68.54
2019-05-05T03:11:36.042Z,68.44
2019-05-05T03:12:16.618Z,68.44
2019-05-05T03:12:57.168Z,68.64
2019-05-05T03:13:37.732Z,68.73
2019-05-05T03:14:18.288Z,68.44
2019-05-05T03:14:58.858Z,68.54
2019-05-05T03:15:39.398Z,68.64
2019-05-05T03:16:19.948Z,68.44
2019-05-05T03:17:00.505Z,68.54
2019-05-05T03:17:41.054Z,68.54
2019-05-05T03:18:21.619Z,68.54
2019-05-05T03:19:03.517Z,68.64
2019-05-05T03:19:44.393Z,68.54
2019-05-05T03:20:23.703Z,69.3
2019-05-05T03:21:06.757Z,68.83
2019-05-05T03:21:44.447Z,69.11
2019-05-05T03:22:25.000Z,69.21
2019-05-05T03:23:05.552Z,69.11
2019-05-05T03:23:46.116Z,69.21
2019-05-05T03:24:26.669Z,69.11
2019-05-05T03:25:07.267Z,69.21
2019-05-05T03:25:47.855Z,69.68
2019-05-05T03:26:28.421Z,68.92
2019-05-05T03:27:08.977Z,69.59
2019-05-05T03:27:49.528Z,69.68
2019-05-05T03:28:30.101Z,69.46
2019-05-05T03:29:10.666Z,69.68
2019-05-05T03:29:53.310Z,69.4
2019-05-05T03:30:35.223Z,69.08
2019-05-05T03:31:15.483Z,69.74
2019-05-05T03:31:55.773Z,69.55
2019-05-05T03:32:35.938Z,69.93
2019-05-05T03:33:15.894Z,70.15
2019-05-05T03:33:54.997Z,70.06
2019-05-05T03:34:35.133Z,69.93
2019-05-05T03:35:15.687Z,70.63
2019-05-05T03:35:56.277Z,69.87
2019-05-05T03:36:36.841Z,69.96
2019-05-05T03:37:17.417Z,70.35
2019-05-05T03:37:57.978Z,70.15
2019-05-05T03:38:38.560Z,69.78
2019-05-05T03:39:19.121Z,69.96
2019-05-05T03:39:59.672Z,69.87
2019-05-05T03:40:40.244Z,69.87
2019-05-05T03:41:20.839Z,69.68
2019-05-05T03:42:03.452Z,69.87
2019-05-05T03:42:44.096Z,69.96
2019-05-05T03:43:23.654Z,70.06
2019-05-05T03:44:04.689Z,69.87
2019-05-05T03:44:44.075Z,70.15
2019-05-05T03:45:24.263Z,70.06
2019-05-05T03:46:04.833Z,69.96
2019-05-05T03:46:45.396Z,69.78
2019-05-05T03:47:25.955Z,69.87
2019-05-05T03:48:06.507Z,69.87
2019-05-05T03:48:47.055Z,69.96
2019-05-05T03:49:27.630Z,70.06
2019-05-05T03:50:08.211Z,69.68
2019-05-05T03:50:48.792Z,69.87
2019-05-05T03:51:29.347Z,69.74
2019-05-05T03:52:09.918Z,70.12
2019-05-05T03:52:50.486Z,70.06
2019-05-05T03:53:31.038Z,70.59
2019-05-05T03:54:11.583Z,70.5
2019-05-05T03:54:54.004Z,70.5
2019-05-05T03:55:34.374Z,70.4
2019-05-05T03:56:14.013Z,70.21
2019-05-05T03:56:54.326Z,70.78
2019-05-05T03:57:34.362Z,70.82
2019-05-05T03:58:14.915Z,70.69
2019-05-05T03:58:58.218Z,70.59
2019-05-05T03:59:36.058Z,70.82
2019-05-05T04:00:16.619Z,70.4
2019-05-05T04:00:57.158Z,70.63
2019-05-05T04:01:37.722Z,70.5
2019-05-05T04:02:18.281Z,70.69
2019-05-05T04:02:58.849Z,70.69
2019-05-05T04:03:39.406Z,70.63
2019-05-05T04:04:19.980Z,70.69
2019-05-05T04:05:00.550Z,70.63
2019-05-05T04:05:41.104Z,70.59
2019-05-05T04:06:23.380Z,70.4
2019-05-05T04:07:04.457Z,70.78
2019-05-05T04:07:43.967Z,70.78
2019-05-05T04:08:23.519Z,70.5
2019-05-05T04:09:04.314Z,70.59
2019-05-05T04:09:44.445Z,70.82
2019-05-05T04:10:25.004Z,70.44
2019-05-05T04:11:05.582Z,70.35
2019-05-05T04:11:46.148Z,70.59
2019-05-05T04:12:26.699Z,70.82
2019-05-05T04:13:07.262Z,70.59
2019-05-05T04:13:47.809Z,70.63
2019-05-05T04:14:28.374Z,70.82
2019-05-05T04:15:08.920Z,70.63
2019-05-05T04:15:49.478Z,70.54
2019-05-05T04:16:30.038Z,70.63
2019-05-05T04:17:10.596Z,70.73
2019-05-05T04:17:51.159Z,70.63
2019-05-05T04:18:31.739Z,70.82
2019-05-05T04:19:13.827Z,70.54
2019-05-05T04:19:54.164Z,70.44
2019-05-05T04:20:33.791Z,70.54
2019-05-05T04:21:14.552Z,70.54
2019-05-05T04:21:54.547Z,70.63
2019-05-05T04:22:35.103Z,70.54
2019-05-05T04:23:15.664Z,70.35
2019-05-05T04:23:56.218Z,70.35
2019-05-05T04:24:36.781Z,70.25
2019-05-05T04:25:17.352Z,70.25
2019-05-05T04:25:57.917Z,70.35
2019-05-05T04:26:38.465Z,70.44
2019-05-05T04:27:19.025Z,70.5
2019-05-05T04:27:59.600Z,70.54
2019-05-05T04:28:40.156Z,70.44
2019-05-05T04:29:20.712Z,70.44
2019-05-05T04:30:01.314Z,70.35
2019-05-05T04:30:44.208Z,70.82
2019-05-05T04:31:24.135Z,70.54
2019-05-05T04:32:04.587Z,70.63
2019-05-05T04:32:44.044Z,70.82
2019-05-05T04:33:24.334Z,70.73
2019-05-05T04:34:04.903Z,70.54
2019-05-05T04:34:45.453Z,70.63
2019-05-05T04:35:26.000Z,70.73
2019-05-05T04:36:06.561Z,70.44
2019-05-05T04:36:47.117Z,70.63
2019-05-05T04:37:27.669Z,70.82
2019-05-05T04:38:08.236Z,70.25
2019-05-05T04:38:48.806Z,70.35
2019-05-05T04:39:29.345Z,70.44
2019-05-05T04:40:09.905Z,70.54
2019-05-05T04:40:50.458Z,70.25
2019-05-05T04:41:31.008Z,70.82
2019-05-05T04:42:11.567Z,70.25
2019-05-05T04:42:54.363Z,70.35
2019-05-05T04:43:33.820Z,70.82
2019-05-05T04:44:14.541Z,70.63
2019-05-05T04:46:26.076Z,70.44
2019-05-05T04:47:06.688Z,70.63
2019-05-05T04:47:47.235Z,70.35
2019-05-05T04:48:27.799Z,70.44
2019-05-05T04:49:08.397Z,70.15
2019-05-05T04:49:49.013Z,70.63
2019-05-05T04:50:29.569Z,70.73
2019-05-05T04:51:10.120Z,70.44
2019-05-05T04:51:50.672Z,70.73
2019-05-05T04:52:31.229Z,70.54
2019-05-05T04:53:13.511Z,70.73
2019-05-05T04:53:53.803Z,70.54
2019-05-05T04:54:33.429Z,70.54
2019-05-05T04:55:13.876Z,70.63
2019-05-05T04:55:54.013Z,70.82
2019-05-05T04:56:34.584Z,70.73
2019-05-05T04:57:15.143Z,70.54
2019-05-05T04:57:55.703Z,70.35
2019-05-05T04:58:36.261Z,70.44
2019-05-05T04:59:16.833Z,70.44
2019-05-05T04:59:57.416Z,70.54
2019-05-05T05:00:37.955Z,70.06
2019-05-05T05:01:18.509Z,69.96
2019-05-05T05:01:59.063Z,70.35
2019-05-05T05:02:39.644Z,70.15
2019-05-05T05:03:20.200Z,70.25
2019-05-05T05:04:00.772Z,70.25
2019-05-05T05:04:41.334Z,70.15
2019-05-05T05:05:21.904Z,70.35
2019-05-05T05:06:04.116Z,70.15
2019-05-05T05:06:43.592Z,70.25
2019-05-05T05:07:24.119Z,70.25
2019-05-05T05:08:04.157Z,70.25
2019-05-05T05:08:44.726Z,70.25
2019-05-05T05:09:25.296Z,70.15
2019-05-05T05:10:05.862Z,70.06
2019-05-05T05:10:47.966Z,69.87
2019-05-05T05:11:28.799Z,69.78
2019-05-05T05:12:09.681Z,69.68
2019-05-05T05:12:50.271Z,69.59
2019-05-05T05:13:30.825Z,69.78
2019-05-05T05:14:11.384Z,69.68
2019-05-05T05:14:51.960Z,69.68
2019-05-05T05:15:34.012Z,69.87
2019-05-05T05:16:13.843Z,70.06
2019-05-05T05:16:54.185Z,69.96
2019-05-05T05:17:34.315Z,69.21
2019-05-05T05:18:15.045Z,69.49
2019-05-05T05:18:55.429Z,69.59
2019-05-05T05:19:35.992Z,69.96
2019-05-05T05:20:16.554Z,70.06
2019-05-05T05:20:57.115Z,69.87
2019-05-05T05:21:37.687Z,70
2019-05-05T05:22:18.265Z,69.87
2019-05-05T05:22:58.868Z,69.15
2019-05-05T05:23:39.432Z,69.4
2019-05-05T05:24:19.995Z,69.43
2019-05-05T05:25:00.552Z,69.59
2019-05-05T05:25:41.223Z,69.53
2019-05-05T05:26:21.773Z,69.62
2019-05-05T05:27:02.347Z,69.53
2019-05-05T05:27:44.275Z,69.34
2019-05-05T05:28:23.686Z,69.34
2019-05-05T05:29:04.696Z,69.24
2019-05-05T05:29:45.434Z,69.15
2019-05-05T05:30:25.999Z,69.15
2019-05-05T05:31:06.901Z,69.34
2019-05-05T05:31:47.480Z,69.34
2019-05-05T05:32:28.041Z,69.24
2019-05-05T05:33:08.599Z,69.24
2019-05-05T05:33:49.172Z,69.15
2019-05-05T05:34:29.737Z,69.05
2019-05-05T05:35:10.348Z,69.15
2019-05-05T05:35:51.025Z,68.67
2019-05-05T05:36:33.657Z,68.67
2019-05-05T05:37:13.473Z,68.67
2019-05-05T05:37:53.948Z,68.48
2019-05-05T05:38:34.569Z,68.39
2019-05-05T05:39:14.010Z,68.39
2019-05-05T05:39:54.589Z,68.01
2019-05-05T05:40:35.581Z,67.85
2019-05-05T05:41:16.137Z,67.66
2019-05-05T05:41:56.719Z,67.66
2019-05-05T05:42:37.283Z,67.09
2019-05-05T05:43:17.846Z,66.24
2019-05-05T05:43:58.549Z,66.05
2019-05-05T05:44:39.100Z,66.14
2019-05-05T05:45:19.679Z,65.99
2019-05-05T05:46:00.239Z,65.99
2019-05-05T05:46:40.809Z,65.32
2019-05-05T05:47:21.362Z,64.94
2019-05-05T05:48:03.916Z,64.94
2019-05-05T05:48:43.414Z,64.56
2019-05-05T05:49:24.129Z,64.56
2019-05-05T05:50:04.068Z,64.21
2019-05-05T05:50:44.392Z,63.83
2019-05-05T05:51:24.778Z,63.83
2019-05-05T05:52:13.174Z,63.54
2019-05-05T05:52:45.918Z,62.88
2019-05-05T05:53:26.506Z,62.4
2019-05-05T05:54:07.078Z,62.3
2019-05-05T05:54:47.643Z,62.05
2019-05-05T05:55:28.222Z,62.15
2019-05-05T05:56:08.768Z,61.77
2019-05-05T05:56:49.340Z,61.58
2019-05-05T05:57:29.947Z,60.63
2019-05-05T05:58:10.513Z,60.82
2019-05-05T05:58:51.100Z,60.63
2019-05-05T05:59:33.763Z,60.44
2019-05-05T06:00:14.260Z,60.37
2019-05-05T06:00:53.924Z,60.18
2019-05-05T06:01:34.530Z,59.23
2019-05-05T06:02:15.572Z,59.32
2019-05-05T06:02:54.678Z,59.42
2019-05-05T06:03:35.413Z,59.13
2019-05-05T06:04:16.962Z,59.23
2019-05-05T06:04:58.034Z,58.3
2019-05-05T06:05:39.336Z,58.3
2019-05-05T06:06:20.467Z,57.82
2019-05-05T06:07:03.872Z,58.3
2019-05-05T06:07:44.224Z,57.45
2019-05-05T06:08:24.782Z,57.16
2019-05-05T06:09:06.051Z,56.97
2019-05-05T06:09:47.258Z,56.62
2019-05-05T06:10:28.493Z,56.24
2019-05-05T06:11:09.753Z,56.04
2019-05-05T06:11:50.846Z,55.85
2019-05-05T06:12:33.598Z,55.57
2019-05-05T06:13:15.198Z,55.76
2019-05-05T06:13:54.627Z,55.57
2019-05-05T06:14:35.863Z,55.57
2019-05-05T06:15:16.627Z,55.5
2019-05-05T06:15:57.203Z,54.71
2019-05-05T06:16:37.806Z,54.93
2019-05-05T06:17:18.367Z,54.36
2019-05-05T06:17:58.934Z,54.36
2019-05-05T06:18:39.519Z,54.17
2019-05-05T06:19:20.086Z,53.97
2019-05-05T06:20:00.644Z,53.97
2019-05-05T06:20:41.205Z,54.1
2019-05-05T06:21:21.768Z,54.19
2019-05-05T06:22:03.492Z,53.33
2019-05-05T06:22:44.637Z,53.53
2019-05-05T06:23:24.150Z,53.24
2019-05-05T06:24:04.557Z,53.43
2019-05-05T06:24:44.607Z,53.45
2019-05-05T06:25:26.517Z,53.08
2019-05-05T06:26:07.011Z,52.69
2019-05-05T06:26:46.320Z,51.93
2019-05-05T06:27:26.900Z,50.98
2019-05-05T06:28:07.467Z,50.98
2019-05-05T06:28:48.025Z,50.14
2019-05-05T06:29:28.589Z,50.14
2019-05-05T06:30:09.152Z,50.52
2019-05-05T06:30:49.719Z,50.24
2019-05-05T06:31:30.307Z,50.24
2019-05-05T06:32:11.086Z,50.33
2019-05-05T06:32:51.628Z,49.95
2019-05-05T06:33:32.185Z,50.14
2019-05-05T06:34:13.943Z,50.07
2019-05-05T06:34:53.536Z,49.69
2019-05-05T06:35:34.019Z,49.59
2019-05-05T06:36:14.470Z,49.11
2019-05-05T06:36:55.038Z,48.83
2019-05-05T06:37:35.608Z,48.64
2019-05-05T06:38:16.193Z,48.64
2019-05-05T06:38:56.770Z,48.64
2019-05-05T06:39:37.340Z,48.18
2019-05-05T06:40:17.906Z,47.89
2019-05-05T06:40:58.480Z,47.99
2019-05-05T06:41:39.060Z,48.28
2019-05-05T06:42:19.630Z,47.89
2019-05-05T06:43:00.200Z,47.42
2019-05-05T06:43:40.768Z,47.13
2019-05-05T06:44:21.352Z,47.61
2019-05-05T06:45:04.002Z,47.52
2019-05-05T06:45:44.245Z,46.94
2019-05-05T06:46:23.619Z,47.03
2019-05-05T06:47:04.635Z,46.94
2019-05-05T06:47:44.544Z,47.03
2019-05-05T06:48:24.749Z,46.84
2019-05-05T06:49:05.324Z,47.42
2019-05-05T06:49:45.903Z,46.94
2019-05-05T06:50:26.459Z,46.77
2019-05-05T06:51:07.026Z,46.39
2019-05-05T06:51:47.600Z,46.1
2019-05-05T06:52:40.855Z,46.48
2019-05-05T06:53:08.766Z,46.3
2019-05-05T06:53:50.216Z,46.2
2019-05-05T06:54:30.793Z,46.31
2019-05-05T06:55:11.362Z,45.43
2019-05-05T06:55:54.127Z,45.05
2019-05-05T06:56:34.153Z,44.48
2019-05-05T06:57:13.996Z,43.9
2019-05-05T06:57:55.331Z,44.4
2019-05-05T06:58:35.897Z,44.48
2019-05-05T06:59:16.514Z,43.9
2019-05-05T06:59:57.760Z,43.8
2019-05-05T07:00:39.104Z,44.57
2019-05-05T07:01:20.137Z,45.15
2019-05-05T07:02:00.716Z,44.76
2019-05-05T07:02:41.296Z,44.86
2019-05-05T07:03:24.293Z,44.95
2019-05-05T07:04:04.225Z,45.43
2019-05-05T07:04:45.341Z,45.36
2019-05-05T07:05:26.658Z,45.55
2019-05-05T07:06:07.689Z,45.36
2019-05-05T07:06:53.911Z,44.98
2019-05-05T07:07:29.611Z,44.98
2019-05-05T07:08:10.192Z,45.07
2019-05-05T07:08:50.954Z,44.79
2019-05-05T07:09:33.567Z,44.5
2019-05-05T07:10:14.024Z,44.5
2019-05-05T07:10:54.845Z,44.69
2019-05-05T07:11:35.233Z,44.31
2019-05-05T07:12:15.231Z,44.02
2019-05-05T07:12:55.796Z,43.85
2019-05-05T07:13:36.378Z,43.83
2019-05-05T07:14:16.950Z,42.87
2019-05-05T07:14:57.518Z,42.32
2019-05-05T07:15:38.088Z,42.22
2019-05-05T07:16:18.648Z,42.2
2019-05-05T07:16:59.229Z,42.4
2019-05-05T07:17:39.813Z,42.3
2019-05-05T07:18:20.386Z,42.11
2019-05-05T07:19:00.955Z,42.3
2019-05-05T07:19:41.529Z,42.3
2019-05-05T07:20:23.949Z,42.11
2019-05-05T07:21:03.606Z,42.3
2019-05-05T07:21:43.669Z,42.58
2019-05-05T07:22:24.382Z,43.18
2019-05-05T07:23:05.296Z,42.7
2019-05-05T07:23:46.165Z,42.4
2019-05-05T07:24:26.726Z,42.22
2019-05-05T07:25:07.296Z,41.84
2019-05-05T07:25:47.876Z,41.36
2019-05-05T07:26:28.445Z,40.41
2019-05-05T07:27:09.027Z,40.02
2019-05-05T07:27:49.592Z,39.92
2019-05-05T07:28:30.209Z,40.59
2019-05-05T07:29:10.793Z,41.74
2019-05-05T07:29:51.369Z,41.17
2019-05-05T07:32:50.440Z,41.84
2019-05-05T07:33:31.022Z,41.84
2019-05-05T07:34:13.501Z,40.98
2019-05-05T07:34:52.174Z,40.02
2019-05-05T07:35:34.458Z,39.92
2019-05-05T07:36:14.512Z,40.98
2019-05-05T07:36:54.783Z,40.78
2019-05-05T07:37:34.566Z,40.98
2019-05-05T07:38:15.077Z,40.69
2019-05-05T07:38:55.643Z,41.27
2019-05-05T07:39:36.305Z,39.45
2019-05-05T07:40:16.896Z,39.54
2019-05-05T07:40:57.476Z,40.02
2019-05-05T07:41:40.477Z,40.02
2019-05-05T08:13:44.040Z,35.6
2019-05-05T08:14:24.459Z,35.77
2019-05-05T08:15:04.268Z,35.68
2019-05-05T08:15:56.197Z,35.68
2019-05-05T08:16:24.317Z,35.12
2019-05-05T08:17:04.820Z,34.24
2019-05-05T08:17:45.404Z,34.24
2019-05-05T08:18:25.996Z,35.1
2019-05-05T08:19:06.555Z,35
2019-05-05T08:19:47.145Z,34.43
2019-05-05T08:20:27.712Z,34.63
2019-05-05T08:21:08.280Z,34.34
2019-05-05T08:22:55.785Z,37.68
2019-05-05T08:23:36.347Z,37.68
2019-05-05T08:24:16.924Z,36.15
2019-05-05T08:24:57.475Z,35.86
2019-05-05T08:25:40.264Z,36.35
2019-05-05T08:26:18.612Z,37.4
2019-05-05T08:26:59.236Z,37.3
2019-05-05T08:27:39.748Z,37.02
2019-05-05T08:28:20.326Z,35.49
2019-05-05T08:29:00.887Z,35.2
2019-05-05T08:29:43.300Z,34.53
2019-05-05T08:30:24.217Z,35.1
2019-05-05T08:31:03.903Z,36.25
2019-05-05T08:31:44.257Z,37.02
2019-05-05T08:32:23.869Z,38.07
2019-05-05T08:33:04.567Z,38.83
2019-05-05T08:33:44.835Z,38.74
2019-05-05T08:34:25.391Z,37.32
2019-05-05T08:35:05.955Z,38.28
2019-05-05T08:35:46.532Z,38.18
2019-05-05T08:36:27.089Z,38.28
2019-05-05T08:37:07.643Z,36.08
2019-05-05T08:37:48.217Z,36.65
2019-05-05T08:38:28.781Z,37.51
2019-05-05T08:39:09.346Z,37.23
2019-05-05T08:39:49.900Z,37.63
2019-05-05T08:40:30.469Z,37.43
2019-05-05T08:41:11.028Z,36.77
2019-05-05T08:41:53.670Z,36.96
2019-05-05T08:42:33.877Z,36.38
2019-05-05T08:43:13.793Z,35.9
2019-05-05T08:43:54.255Z,34.94
2019-05-05T08:44:34.354Z,35.14
2019-05-05T08:45:14.429Z,36
2019-05-05T08:45:55.445Z,37.05
2019-05-05T08:46:35.560Z,37.05
2019-05-05T08:47:16.118Z,36.57
2019-05-05T08:47:56.675Z,37.34
2019-05-05T08:48:37.241Z,35.42
2019-05-05T08:49:17.800Z,34.37
2019-05-05T08:49:58.366Z,35.12
2019-05-05T08:50:38.947Z,34.16
2019-05-05T08:51:19.526Z,33.11
2019-05-05T08:52:00.114Z,33
2019-05-05T08:52:40.694Z,33.57
2019-05-05T08:53:21.242Z,32.89
2019-05-05T08:54:03.669Z,32.98
2019-05-05T08:54:44.388Z,35.08
2019-05-05T08:55:24.576Z,36.14
2019-05-05T08:56:04.043Z,36.99
2019-05-05T08:56:44.704Z,36.99
2019-05-05T08:57:24.633Z,35.66
2019-05-05T08:58:05.209Z,37.28
2019-05-05T08:58:45.776Z,36.04
2019-05-05T08:59:26.338Z,34.8
2019-05-05T09:00:06.913Z,36.23
2019-05-05T09:00:47.485Z,38.24
2019-05-05T09:01:28.056Z,38.05
2019-05-05T09:02:08.607Z,38.53
2019-05-05T09:02:49.164Z,37.3
2019-05-05T09:03:29.721Z,35.96
2019-05-05T09:04:10.276Z,37.11
2019-05-05T09:04:50.850Z,35.86
2019-05-05T09:05:31.421Z,34.43
2019-05-05T09:06:13.695Z,33.76
2019-05-05T09:06:54.294Z,32.7
2019-05-05T09:07:33.603Z,32.03
2019-05-05T09:08:13.987Z,32.01
2019-05-05T09:08:54.833Z,32.01
2019-05-05T09:09:34.812Z,32.97
2019-05-05T09:10:15.384Z,33.33
2019-05-05T09:10:55.950Z,34.09
2019-05-05T09:11:37.001Z,35.24
2019-05-05T09:12:17.567Z,36.39
2019-05-05T09:12:58.148Z,36.96
2019-05-05T09:13:38.714Z,37.05
2019-05-05T09:14:19.273Z,37.15
2019-05-05T09:14:59.821Z,37.05
2019-05-05T09:15:40.387Z,36.87
2019-05-05T09:16:20.953Z,37.05
2019-05-05T09:17:01.528Z,37.05
2019-05-05T09:17:46.877Z,36.58
2019-05-05T09:18:27.446Z,36.39
2019-05-05T09:19:08.011Z,37.24
2019-05-05T09:19:48.567Z,37.44
2019-05-05T09:20:29.126Z,37.53
2019-05-05T09:21:09.693Z,38.32
2019-05-05T09:21:50.271Z,38.6
2019-05-05T09:22:30.836Z,37.07
2019-05-05T09:23:11.402Z,37.17
2019-05-05T09:23:59.615Z,37.55
2019-05-05T09:24:34.059Z,38.32
2019-05-05T09:25:13.713Z,37.17
2019-05-05T09:25:54.012Z,38.22